Time;durP1;ratioP1;P1;durP2;ratioP2;P2;SDS_P1;SDS_P2;PMS_P1;PMS_P2;Temp;Humidity;BMP_temperature;BMP_pressure;BME280_temperature;BME280_humidity;BME280_pressure;Samples;Min_cycle;Max_cycle;Signal;HPM_P1;HPM_P2
2023/10/05 00:01:10;;;;;;;22.93;21.07;;;;;;;;;;5098069;28;20427;-83
2023/10/05 00:03:38;;;;;;;22.93;21.10;;;;;;;;;;5097321;28;20468;-83
2023/10/05 00:06:13;;;;;;;23.47;21.37;;;;;;;;;;5097336;28;20472;-84
2023/10/05 00:08:44;;;;;;;23.73;21.43;;;;;;;;;;5098348;28;20436;-82
2023/10/05 00:11:14;;;;;;;23.60;21.60;;;;;;;;;;5098621;28;20506;-83
2023/10/05 00:13:44;;;;;;;23.80;22.00;;;;;;;;;;5097582;28;20524;-83
2023/10/05 00:16:20;;;;;;;21.93;20.13;;;;;;;;;;5097953;28;20842;-83
2023/10/05 00:18:47;;;;;;;23.30;21.60;;;;;;;;;;5097779;28;20412;-83
2023/10/05 00:21:18;;;;;;;24.47;22.27;;;;;;;;;;5098099;28;20448;-82
2023/10/05 00:23:50;;;;;;;23.57;21.47;;;;;;;;;;5098639;28;20940;-84
2023/10/05 00:26:20;;;;;;;24.37;22.10;;;;;;;;;;5097940;28;20506;-83
2023/10/05 00:29:00;;;;;;;23.23;20.90;;;;;;;;;;5097821;28;20420;-82
2023/10/05 00:31:27;;;;;;;23.30;21.60;;;;;;;;;;5101107;28;20454;-82
2023/10/05 00:33:56;;;;;;;22.43;20.67;;;;;;;;;;5100855;28;20423;-83
2023/10/05 00:36:26;;;;;;;22.40;20.80;;;;;;;;;;5101645;28;20471;-83
2023/10/05 00:39:01;;;;;;;22.60;20.80;;;;;;;;;;5102963;28;20504;-83
2023/10/05 00:41:28;;;;;;;22.27;20.33;;;;;;;;;;5102250;28;20436;-82
2023/10/05 00:43:55;;;;;;;23.73;21.67;;;;;;;;;;5101651;28;20420;-83
2023/10/05 00:46:23;;;;;;;23.07;21.27;;;;;;;;;;5102456;28;20468;-83
2023/10/05 00:49:00;;;;;;;25.07;21.90;;;;;;;;;;5102167;28;20434;-83
2023/10/05 00:51:31;;;;;;;22.70;20.70;;;;;;;;;;5101854;28;20433;-84
2023/10/05 00:54:04;;;;;;;22.70;20.80;;;;;;;;;;5101518;28;20510;-82
2023/10/05 00:56:35;;;;;;;23.50;21.50;;;;;;;;;;5100593;28;20443;-83
2023/10/05 00:59:06;;;;;;;23.50;21.50;;;;;;;;;;5101635;28;20457;-81
2023/10/05 01:01:50;;;;;;;22.83;20.70;;;;;;;;;;5101893;28;20433;-83
2023/10/05 01:04:23;;;;;;;23.70;21.50;;;;;;;;;;5101005;28;20437;-83
2023/10/05 01:06:56;;;;;;;22.77;20.87;;;;;;;;;;5101587;28;20492;-83
2023/10/05 01:12:19;;;;;;;22.67;20.80;;;;;;;;;;5099899;28;20441;-83
2023/10/05 01:14:51;;;;;;;21.47;20.00;;;;;;;;;;5099042;28;20463;-84
2023/10/05 01:17:21;;;;;;;21.57;19.80;;;;;;;;;;5105014;28;20526;-84
2023/10/05 01:19:54;;;;;;;23.37;21.27;;;;;;;;;;5100007;28;20451;-82
2023/10/05 01:22:22;;;;;;;22.03;20.43;;;;;;;;;;5100910;28;20558;-83
2023/10/05 01:24:52;;;;;;;23.33;20.77;;;;;;;;;;5099898;28;20809;-83
2023/10/05 01:27:21;;;;;;;21.67;20.07;;;;;;;;;;5099704;28;20473;-83
2023/10/05 01:29:49;;;;;;;21.60;19.73;;;;;;;;;;5100108;28;20456;-82
2023/10/05 01:32:16;;;;;;;22.93;20.93;;;;;;;;;;5100628;28;20452;-82
2023/10/05 01:34:49;;;;;;;22.13;20.20;;;;;;;;;;5099706;28;20829;-83
2023/10/05 01:37:18;;;;;;;22.13;20.17;;;;;;;;;;5100017;28;21095;-83
2023/10/05 01:39:45;;;;;;;22.63;20.40;;;;;;;;;;5100289;28;20441;-83
2023/10/05 01:42:14;;;;;;;22.13;20.23;;;;;;;;;;5100621;28;20453;-83
2023/10/05 01:44:47;;;;;;;22.10;20.20;;;;;;;;;;5099904;28;20542;-83
2023/10/05 01:47:14;;;;;;;21.83;19.83;;;;;;;;;;5099922;28;20480;-81
2023/10/05 01:49:42;;;;;;;20.80;19.33;;;;;;;;;;5114503;28;20464;-83
2023/10/05 01:52:09;;;;;;;21.10;19.50;;;;;;;;;;5120413;28;20805;-82
2023/10/05 01:54:36;;;;;;;21.40;19.80;;;;;;;;;;5119379;28;20484;-82
2023/10/05 01:57:08;;;;;;;21.20;19.70;;;;;;;;;;5120425;28;20480;-83
2023/10/05 01:59:37;;;;;;;21.27;19.30;;;;;;;;;;5119709;28;20441;-83
2023/10/05 02:02:09;;;;;;;20.90;19.40;;;;;;;;;;5119853;28;20462;-82
2023/10/05 02:04:40;;;;;;;20.97;19.57;;;;;;;;;;5119330;28;20464;-83
2023/10/05 02:07:07;;;;;;;22.07;19.83;;;;;;;;;;5120027;28;20460;-83
2023/10/05 02:09:37;;;;;;;22.77;20.73;;;;;;;;;;5120054;28;20523;-82
2023/10/05 02:12:06;;;;;;;22.13;20.17;;;;;;;;;;5119419;28;20459;-83
2023/10/05 02:14:36;;;;;;;21.60;20.10;;;;;;;;;;5119135;28;20505;-82
2023/10/05 02:17:06;;;;;;;20.97;19.47;;;;;;;;;;5119474;28;20476;-83
2023/10/05 02:19:36;;;;;;;21.37;19.83;;;;;;;;;;5117488;28;20464;-81
2023/10/05 02:22:04;;;;;;;22.13;20.40;;;;;;;;;;5099326;28;20855;-82
2023/10/05 02:24:31;;;;;;;21.50;19.53;;;;;;;;;;5098163;28;20430;-83
2023/10/05 02:27:11;;;;;;;21.50;19.60;;;;;;;;;;5099701;28;20442;-84
2023/10/05 02:29:42;;;;;;;20.33;18.93;;;;;;;;;;5098899;28;20687;-83
2023/10/05 02:32:11;;;;;;;22.47;20.30;;;;;;;;;;5098884;28;20422;-83
2023/10/05 02:34:41;;;;;;;21.70;20.03;;;;;;;;;;5097942;28;20480;-82
2023/10/05 02:37:11;;;;;;;21.60;19.87;;;;;;;;;;5099004;28;20483;-83
2023/10/05 02:39:38;;;;;;;22.17;20.13;;;;;;;;;;5098344;28;20435;-83
2023/10/05 02:42:05;;;;;;;21.40;19.70;;;;;;;;;;5098565;28;20580;-83
2023/10/05 02:44:35;;;;;;;21.10;19.20;;;;;;;;;;5112645;28;20464;-82
2023/10/05 02:47:02;;;;;;;23.20;20.80;;;;;;;;;;5098668;28;20463;-82
2023/10/05 02:49:31;;;;;;;21.80;20.27;;;;;;;;;;5098513;28;20525;-83
2023/10/05 02:51:58;;;;;;;22.63;20.60;;;;;;;;;;5098795;28;20435;-82
2023/10/05 02:54:27;;;;;;;21.97;20.17;;;;;;;;;;5097633;28;20430;-83
2023/10/05 02:56:54;;;;;;;23.20;21.23;;;;;;;;;;5099126;28;20469;-83
2023/10/05 02:59:22;;;;;;;21.37;19.47;;;;;;;;;;5098876;28;20473;-83
2023/10/05 03:01:49;;;;;;;22.60;20.80;;;;;;;;;;5098350;28;20428;-83
2023/10/05 03:04:21;;;;;;;21.47;19.50;;;;;;;;;;5097994;28;20457;-82
2023/10/05 03:06:52;;;;;;;21.53;19.90;;;;;;;;;;5098469;28;20745;-83
2023/10/05 03:09:21;;;;;;;21.43;19.60;;;;;;;;;;5098438;28;20418;-83
2023/10/05 03:11:49;;;;;;;21.27;19.83;;;;;;;;;;5098228;28;20780;-82
2023/10/05 03:14:17;;;;;;;21.87;20.33;;;;;;;;;;5098098;28;20454;-83
2023/10/05 03:16:47;;;;;;;21.60;19.90;;;;;;;;;;5113030;28;20510;-83
2023/10/05 03:19:20;;;;;;;21.33;19.60;;;;;;;;;;5098490;28;20453;-84
2023/10/05 03:21:47;;;;;;;22.07;20.30;;;;;;;;;;5098517;28;20459;-84
2023/10/05 03:24:16;;;;;;;22.07;19.90;;;;;;;;;;5098057;28;20916;-83
2023/10/05 03:26:43;;;;;;;20.73;19.20;;;;;;;;;;5111289;28;20572;-83
2023/10/05 03:29:11;;;;;;;21.00;19.23;;;;;;;;;;5118285;28;20419;-83
2023/10/05 03:31:43;;;;;;;22.53;20.63;;;;;;;;;;5118391;28;20459;-83
2023/10/05 03:34:10;;;;;;;21.27;19.37;;;;;;;;;;5118609;28;20804;-83
2023/10/05 03:36:38;;;;;;;21.30;19.80;;;;;;;;;;5117952;28;21291;-83
2023/10/05 03:39:07;;;;;;;22.93;21.00;;;;;;;;;;5118633;28;20417;-83
2023/10/05 03:41:38;;;;;;;20.87;19.20;;;;;;;;;;5118150;27;20419;-83
2023/10/05 03:44:07;;;;;;;21.10;19.30;;;;;;;;;;5117853;28;20451;-83
2023/10/05 03:46:35;;;;;;;22.17;20.07;;;;;;;;;;5119239;27;20520;-82
2023/10/05 03:49:06;;;;;;;19.13;17.93;;;;;;;;;;5118005;28;20456;-83
2023/10/05 03:51:37;;;;;;;21.97;20.00;;;;;;;;;;5118216;28;20508;-79
2023/10/05 03:54:04;;;;;;;22.20;20.57;;;;;;;;;;5116534;28;20432;-83
2023/10/05 03:56:31;;;;;;;21.53;19.63;;;;;;;;;;5106402;28;21072;-83
2023/10/05 03:59:00;;;;;;;21.30;19.67;;;;;;;;;;5102284;28;20435;-83
2023/10/05 04:01:28;;;;;;;21.43;19.70;;;;;;;;;;5112423;28;20494;-83
2023/10/05 04:03:55;;;;;;;20.60;19.30;;;;;;;;;;5117431;28;21283;-82
2023/10/05 04:06:26;;;;;;;22.27;20.37;;;;;;;;;;5116755;28;20470;-83
2023/10/05 04:08:57;;;;;;;21.00;19.47;;;;;;;;;;5117031;28;20460;-83
2023/10/05 04:11:26;;;;;;;22.73;20.77;;;;;;;;;;5117753;28;20427;-83
2023/10/05 04:13:54;;;;;;;21.63;19.90;;;;;;;;;;5117128;28;20864;-83
2023/10/05 04:16:26;;;;;;;23.33;21.27;;;;;;;;;;5117532;28;20843;-83
2023/10/05 04:18:53;;;;;;;21.40;19.60;;;;;;;;;;5117471;28;20467;-83
2023/10/05 04:21:22;;;;;;;21.73;20.13;;;;;;;;;;5117160;28;20428;-83
2023/10/05 04:23:50;;;;;;;20.87;19.40;;;;;;;;;;5117066;28;20446;-83
2023/10/05 04:26:19;;;;;;;22.07;20.07;;;;;;;;;;5117179;28;20485;-82
2023/10/05 04:28:53;;;;;;;21.33;19.83;;;;;;;;;;5116728;28;20454;-82
2023/10/05 04:31:24;;;;;;;22.53;20.27;;;;;;;;;;5117070;28;20446;-82
2023/10/05 04:33:54;;;;;;;23.60;21.43;;;;;;;;;;5116035;28;20454;-84
2023/10/05 04:36:23;;;;;;;20.70;19.30;;;;;;;;;;5117023;28;20571;-83
2023/10/05 04:38:51;;;;;;;21.87;20.30;;;;;;;;;;5117324;28;20510;-83
2023/10/05 04:41:19;;;;;;;21.77;20.40;;;;;;;;;;5116602;28;20431;-83
2023/10/05 04:43:48;;;;;;;22.17;20.27;;;;;;;;;;5117297;28;20411;-83
2023/10/05 04:46:17;;;;;;;20.50;18.90;;;;;;;;;;5117206;28;20443;-83
2023/10/05 04:48:55;;;;;;;22.63;20.70;;;;;;;;;;5116919;28;20503;-82
2023/10/05 04:51:23;;;;;;;23.33;21.43;;;;;;;;;;5117376;28;20395;-82
2023/10/05 04:53:54;;;;;;;22.60;20.60;;;;;;;;;;5116749;28;20422;-83
2023/10/05 04:56:28;;;;;;;21.43;19.87;;;;;;;;;;5116814;28;20570;-82
2023/10/05 04:59:18;;;;;;;23.33;21.40;;;;;;;;;;5117275;28;20470;-83
2023/10/05 05:02:00;;;;;;;23.00;21.00;;;;;;;;;;5116791;28;20448;-83
2023/10/05 05:04:41;;;;;;;22.70;20.83;;;;;;;;;;5116982;28;20437;-82
2023/10/05 05:07:10;;;;;;;21.60;20.00;;;;;;;;;;5116576;28;20462;-83
2023/10/05 05:09:38;;;;;;;23.23;21.37;;;;;;;;;;5116752;28;20422;-83
2023/10/05 05:12:08;;;;;;;21.90;20.33;;;;;;;;;;5116909;28;20423;-82
2023/10/05 05:14:36;;;;;;;21.67;20.10;;;;;;;;;;5116256;28;20454;-83
2023/10/05 05:17:05;;;;;;;21.93;20.20;;;;;;;;;;5117083;28;20485;-83
2023/10/05 05:19:32;;;;;;;21.63;20.03;;;;;;;;;;5120917;28;20444;-82
2023/10/05 05:22:00;;;;;;;22.27;20.50;;;;;;;;;;5120750;28;20458;-83
2023/10/05 05:24:29;;;;;;;22.77;20.97;;;;;;;;;;5120621;28;20419;-84
2023/10/05 05:27:00;;;;;;;22.37;20.03;;;;;;;;;;5120760;28;20499;-82
2023/10/05 05:29:29;;;;;;;22.13;20.63;;;;;;;;;;5120673;28;20540;-83
2023/10/05 05:31:56;;;;;;;22.20;20.43;;;;;;;;;;5120699;28;21165;-83
2023/10/05 05:34:25;;;;;;;24.57;21.73;;;;;;;;;;5119958;28;20452;-83
2023/10/05 05:36:54;;;;;;;21.60;19.90;;;;;;;;;;5120379;28;20458;-83
2023/10/05 05:39:21;;;;;;;21.00;19.40;;;;;;;;;;5120419;28;20496;-83
2023/10/05 05:41:59;;;;;;;23.73;21.57;;;;;;;;;;5120125;28;21008;-83
2023/10/05 05:44:26;;;;;;;22.47;20.43;;;;;;;;;;5119792;28;20454;-83
2023/10/05 05:46:55;;;;;;;21.67;20.27;;;;;;;;;;5120353;28;20447;-82
2023/10/05 05:49:22;;;;;;;22.20;20.67;;;;;;;;;;5121355;28;20456;-84
2023/10/05 05:51:49;;;;;;;24.27;22.07;;;;;;;;;;5120093;28;20459;-82
2023/10/05 05:54:18;;;;;;;23.57;21.40;;;;;;;;;;5120194;28;20451;-83
2023/10/05 05:56:45;;;;;;;21.93;20.37;;;;;;;;;;5119895;28;20594;-84
2023/10/05 05:59:14;;;;;;;22.97;21.10;;;;;;;;;;5119384;27;20440;-81
2023/10/05 06:01:41;;;;;;;24.10;21.90;;;;;;;;;;5118874;27;20417;-80
2023/10/05 06:04:08;;;;;;;24.30;21.90;;;;;;;;;;5118286;28;20469;-80
2023/10/05 06:06:37;;;;;;;24.37;21.80;;;;;;;;;;5119967;28;20555;-83
2023/10/05 06:09:07;;;;;;;24.40;22.27;;;;;;;;;;5120264;28;20799;-82
2023/10/05 06:11:34;;;;;;;24.40;22.27;;;;;;;;;;5120329;28;20444;-81
2023/10/05 06:14:03;;;;;;;24.73;22.40;;;;;;;;;;5118334;28;21076;-81
2023/10/05 06:16:33;;;;;;;24.37;22.13;;;;;;;;;;5118180;28;20495;-81
2023/10/05 06:19:01;;;;;;;22.00;20.33;;;;;;;;;;5119074;28;20447;-81
2023/10/05 06:21:29;;;;;;;23.30;21.33;;;;;;;;;;5118634;28;20447;-80
2023/10/05 06:23:56;;;;;;;22.37;20.40;;;;;;;;;;5117390;28;20448;-80
2023/10/05 06:26:24;;;;;;;23.17;20.77;;;;;;;;;;5118276;28;20442;-81
2023/10/05 06:28:51;;;;;;;22.13;20.43;;;;;;;;;;5118000;28;20436;-81
2023/10/05 06:31:18;;;;;;;22.30;20.50;;;;;;;;;;5118522;28;20882;-81
2023/10/05 06:33:47;;;;;;;22.83;20.83;;;;;;;;;;5117818;28;20423;-80
2023/10/05 06:36:14;;;;;;;25.40;21.20;;;;;;;;;;5117922;28;21009;-81
2023/10/05 06:38:41;;;;;;;22.83;20.87;;;;;;;;;;5116579;28;20506;-80
2023/10/05 06:41:08;;;;;;;22.80;21.03;;;;;;;;;;5118621;28;20444;-81
2023/10/05 06:43:35;;;;;;;22.90;20.63;;;;;;;;;;5114575;28;20444;-81
2023/10/05 06:46:09;;;;;;;22.73;20.80;;;;;;;;;;5096802;28;20485;-81
2023/10/05 06:48:36;;;;;;;23.83;21.10;;;;;;;;;;5097666;28;20730;-81
2023/10/05 06:51:05;;;;;;;21.63;20.07;;;;;;;;;;5097130;28;20472;-80
2023/10/05 06:53:32;;;;;;;22.87;20.57;;;;;;;;;;5097739;28;20423;-81
2023/10/05 06:55:59;;;;;;;23.50;21.20;;;;;;;;;;5096454;28;20507;-80
2023/10/05 06:58:26;;;;;;;22.47;20.57;;;;;;;;;;5108304;28;20452;-80
2023/10/05 07:00:53;;;;;;;22.70;21.00;;;;;;;;;;5116954;28;20854;-79
2023/10/05 07:03:21;;;;;;;22.27;20.67;;;;;;;;;;5116293;28;20436;-80
2023/10/05 07:05:48;;;;;;;23.70;21.40;;;;;;;;;;5117087;28;20424;-81
2023/10/05 07:08:16;;;;;;;22.00;20.10;;;;;;;;;;5116632;28;20525;-81
2023/10/05 07:10:44;;;;;;;22.57;20.60;;;;;;;;;;5116971;28;20780;-81
2023/10/05 07:13:11;;;;;;;21.33;19.70;;;;;;;;;;5117311;28;20448;-81
2023/10/05 07:15:38;;;;;;;22.10;20.03;;;;;;;;;;5115081;28;20555;-81
2023/10/05 07:18:06;;;;;;;21.70;20.10;;;;;;;;;;5111001;28;20518;-81
2023/10/05 07:20:36;;;;;;;21.97;20.37;;;;;;;;;;5102160;28;20431;-80
2023/10/05 07:23:03;;;;;;;22.43;20.10;;;;;;;;;;5098015;28;20452;-80
2023/10/05 07:25:33;;;;;;;21.80;20.03;;;;;;;;;;5097286;28;20445;-80
2023/10/05 07:28:00;;;;;;;22.13;19.80;;;;;;;;;;5098154;28;20436;-80
2023/10/05 07:30:28;;;;;;;21.43;19.70;;;;;;;;;;5097836;28;20456;-82
2023/10/05 07:32:55;;;;;;;22.77;20.17;;;;;;;;;;5100691;28;20451;-80
2023/10/05 07:35:22;;;;;;;20.37;18.97;;;;;;;;;;5098824;28;20452;-80
2023/10/05 07:37:49;;;;;;;19.47;18.27;;;;;;;;;;5100387;28;20489;-80
2023/10/05 07:40:16;;;;;;;20.23;18.80;;;;;;;;;;5102612;28;20951;-81
2023/10/05 07:42:45;;;;;;;20.63;18.83;;;;;;;;;;5097233;28;20432;-81
2023/10/05 07:45:13;;;;;;;19.80;18.20;;;;;;;;;;5097332;28;20453;-80
2023/10/05 07:47:43;;;;;;;18.53;17.37;;;;;;;;;;5096928;28;20474;-81
2023/10/05 07:50:11;;;;;;;21.63;19.20;;;;;;;;;;5097366;28;20452;-80
2023/10/05 07:52:38;;;;;;;20.60;19.00;;;;;;;;;;5115708;28;20487;-81
2023/10/05 07:55:07;;;;;;;21.40;19.47;;;;;;;;;;5117021;28;20448;-81
2023/10/05 07:57:35;;;;;;;22.80;20.00;;;;;;;;;;5117582;28;20525;-79
2023/10/05 08:00:05;;;;;;;21.10;19.07;;;;;;;;;;5118095;28;20440;-80
2023/10/05 08:02:32;;;;;;;20.37;18.90;;;;;;;;;;5118329;28;20438;-80
2023/10/05 08:04:59;;;;;;;21.37;19.77;;;;;;;;;;5116850;28;20443;-80
2023/10/05 08:07:26;;;;;;;20.93;19.20;;;;;;;;;;5117593;27;20472;-80
2023/10/05 08:09:55;;;;;;;21.93;20.10;;;;;;;;;;5117196;28;20447;-79
2023/10/05 08:12:23;;;;;;;20.40;18.90;;;;;;;;;;5106059;28;20457;-79
2023/10/05 08:14:50;;;;;;;20.70;19.40;;;;;;;;;;5096587;28;20912;-80
2023/10/05 08:17:18;;;;;;;22.90;19.93;;;;;;;;;;5096664;28;20488;-80
2023/10/05 08:19:46;;;;;;;20.77;19.13;;;;;;;;;;5096453;28;20452;-80
2023/10/05 08:22:13;;;;;;;21.90;20.00;;;;;;;;;;5097103;28;20441;-80
2023/10/05 08:24:40;;;;;;;21.53;19.50;;;;;;;;;;5115981;28;20455;-80
2023/10/05 08:27:11;;;;;;;20.80;19.20;;;;;;;;;;5114254;28;20467;-80
2023/10/05 08:29:40;;;;;;;19.37;18.20;;;;;;;;;;5117548;28;20515;-81
2023/10/05 08:32:07;;;;;;;22.23;20.20;;;;;;;;;;5105278;28;20464;-81
2023/10/05 08:34:39;;;;;;;22.03;20.20;;;;;;;;;;5095737;28;20445;-80
2023/10/05 08:37:08;;;;;;;21.13;19.50;;;;;;;;;;5094881;28;20583;-81
2023/10/05 08:39:37;;;;;;;23.13;21.33;;;;;;;;;;5094984;28;20475;-81
2023/10/05 08:42:06;;;;;;;20.27;18.77;;;;;;;;;;5096358;28;20453;-81
2023/10/05 08:44:38;;;;;;;21.73;19.70;;;;;;;;;;5097280;28;20506;-80
2023/10/05 08:47:06;;;;;;;21.50;19.83;;;;;;;;;;5096748;28;20465;-81
2023/10/05 08:49:34;;;;;;;21.60;19.70;;;;;;;;;;5096260;28;20456;-81
2023/10/05 08:52:13;;;;;;;21.47;19.67;;;;;;;;;;5110431;28;20471;-81
2023/10/05 08:54:40;;;;;;;22.37;20.67;;;;;;;;;;5120534;28;20424;-82
2023/10/05 08:57:10;;;;;;;22.20;20.37;;;;;;;;;;5120455;28;20498;-81
2023/10/05 08:59:37;;;;;;;20.57;19.03;;;;;;;;;;5100414;28;20428;-81
2023/10/05 09:02:07;;;;;;;20.43;19.03;;;;;;;;;;5100613;28;20808;-82
2023/10/05 09:04:44;;;;;;;20.83;19.40;;;;;;;;;;5099407;28;20445;-82
2023/10/05 09:07:27;;;;;;;21.00;19.60;;;;;;;;;;5100221;28;20464;-80
2023/10/05 09:09:54;;;;;;;22.97;21.00;;;;;;;;;;5099691;28;20500;-79
2023/10/05 09:15:09;;;;;;;21.40;19.80;;;;;;;;;;5091734;28;20465;-77
2023/10/05 09:17:37;;;;;;;21.60;19.80;;;;;;;;;;5097579;28;20549;-78
2023/10/05 09:20:19;;;;;;;21.20;19.63;;;;;;;;;;5097908;28;20814;-78
2023/10/05 09:22:53;;;;;;;21.27;19.27;;;;;;;;;;5097441;28;20468;-78
2023/10/05 09:28:44;;;;;;;22.23;20.20;;;;;;;;;;5108241;28;20410;-77
2023/10/05 09:31:11;;;;;;;22.03;20.40;;;;;;;;;;5099178;28;20456;-79
2023/10/05 09:33:49;;;;;;;22.90;21.00;;;;;;;;;;5117205;28;20450;-78
2023/10/05 09:36:19;;;;;;;22.43;20.40;;;;;;;;;;5116775;27;20478;-79
2023/10/05 09:38:48;;;;;;;21.23;19.73;;;;;;;;;;5116703;28;20464;-78
2023/10/05 09:41:17;;;;;;;22.60;20.80;;;;;;;;;;5117026;28;20447;-78
2023/10/05 09:43:44;;;;;;;21.73;20.00;;;;;;;;;;5118193;28;21103;-77
2023/10/05 09:46:14;;;;;;;21.23;19.70;;;;;;;;;;5101182;28;20468;-79
2023/10/05 09:48:42;;;;;;;21.30;19.70;;;;;;;;;;5097783;28;20476;-78
2023/10/05 09:51:10;;;;;;;22.20;20.50;;;;;;;;;;5096333;28;21014;-78
2023/10/05 09:53:38;;;;;;;21.73;20.30;;;;;;;;;;5095602;28;20422;-78
2023/10/05 09:56:11;;;;;;;21.87;20.23;;;;;;;;;;5105645;28;20435;-78
2023/10/05 09:58:39;;;;;;;23.40;21.17;;;;;;;;;;5116071;28;20499;-78
2023/10/05 10:01:12;;;;;;;24.33;22.57;;;;;;;;;;5118712;28;20410;-80
2023/10/05 10:03:45;;;;;;;21.70;20.20;;;;;;;;;;5117110;27;20460;-77
2023/10/05 10:06:13;;;;;;;22.47;20.43;;;;;;;;;;5119857;28;20459;-80
2023/10/05 10:08:51;;;;;;;21.30;19.63;;;;;;;;;;5120208;28;20493;-78
2023/10/05 10:11:20;;;;;;;20.90;19.50;;;;;;;;;;5118196;28;20447;-81
2023/10/05 10:13:52;;;;;;;21.83;20.07;;;;;;;;;;5100079;28;20433;-82
2023/10/05 10:16:22;;;;;;;23.90;21.33;;;;;;;;;;5101274;28;20908;-80
2023/10/05 10:18:49;;;;;;;22.30;20.70;;;;;;;;;;5101212;28;20492;-79
2023/10/05 10:21:24;;;;;;;20.80;19.37;;;;;;;;;;5104465;28;20445;-80
2023/10/05 10:23:51;;;;;;;23.13;21.30;;;;;;;;;;5099352;28;20482;-80
2023/10/05 10:26:24;;;;;;;21.87;20.07;;;;;;;;;;5100433;28;20428;-79
2023/10/05 10:28:57;;;;;;;22.20;20.30;;;;;;;;;;5102253;28;20498;-80
2023/10/05 10:31:30;;;;;;;21.00;19.47;;;;;;;;;;5100876;28;20429;-80
2023/10/05 10:33:57;;;;;;;22.37;20.03;;;;;;;;;;5101350;28;20429;-80
2023/10/05 10:36:39;;;;;;;21.73;19.80;;;;;;;;;;5099720;28;20503;-78
2023/10/05 10:39:22;;;;;;;21.73;19.80;;;;;;;;;;5099923;28;21073;-79
2023/10/05 10:42:07;;;;;;;21.27;19.87;;;;;;;;;;5099565;28;20444;-78
2023/10/05 10:44:56;;;;;;;21.40;19.83;;;;;;;;;;5099289;28;20962;-80
2023/10/05 10:47:23;;;;;;;21.70;19.80;;;;;;;;;;5098996;28;20443;-80
2023/10/05 10:50:01;;;;;;;21.97;20.50;;;;;;;;;;5098575;28;20514;-80
2023/10/05 10:52:29;;;;;;;22.23;20.23;;;;;;;;;;5101759;28;20472;-80
2023/10/05 10:54:59;;;;;;;20.30;19.00;;;;;;;;;;5099087;28;20472;-80
2023/10/05 10:57:28;;;;;;;22.00;20.17;;;;;;;;;;5100854;28;20488;-80
2023/10/05 11:00:38;;;;;;;21.93;20.20;;;;;;;;;;5101102;28;20453;-80
2023/10/05 11:02:42;;;;;;;22.70;20.77;;;;;;;;;;5098537;28;20468;-82
2023/10/05 11:05:16;;;;;;;20.80;18.93;;;;;;;;;;5098175;28;20895;-79
2023/10/05 11:07:43;;;;;;;21.97;19.93;;;;;;;;;;5100501;28;20445;-79
2023/10/05 11:10:18;;;;;;;22.30;20.57;;;;;;;;;;5100338;28;20414;-80
2023/10/05 11:12:53;;;;;;;21.70;19.63;;;;;;;;;;5100567;28;20599;-78
2023/10/05 11:15:28;;;;;;;21.50;20.00;;;;;;;;;;5101158;28;20453;-79
2023/10/05 11:17:59;;;;;;;21.40;19.47;;;;;;;;;;5100556;28;20492;-79
2023/10/05 11:20:33;;;;;;;21.50;19.53;;;;;;;;;;5101010;28;20476;-80
2023/10/05 11:23:03;;;;;;;22.10;20.40;;;;;;;;;;5114372;28;20433;-79
2023/10/05 11:25:34;;;;;;;21.23;19.83;;;;;;;;;;5119356;28;20511;-80
2023/10/05 11:28:08;;;;;;;21.43;19.93;;;;;;;;;;5122533;27;20540;-80
2023/10/05 11:30:42;;;;;;;22.57;20.97;;;;;;;;;;5122535;28;20426;-81
2023/10/05 11:33:16;;;;;;;22.47;20.90;;;;;;;;;;5120456;28;20795;-79
2023/10/05 11:35:48;;;;;;;22.30;20.47;;;;;;;;;;5121825;28;20435;-80
2023/10/05 11:38:16;;;;;;;22.37;20.63;;;;;;;;;;5122389;28;20491;-80
2023/10/05 11:40:49;;;;;;;22.73;20.63;;;;;;;;;;5125091;28;20474;-80
2023/10/05 11:46:26;;;;;;;22.37;20.27;;;;;;;;;;5104801;28;20427;-80
2023/10/05 11:48:55;;;;;;;27.67;25.30;;;;;;;;;;5103232;28;20478;-80
2023/10/05 11:51:27;;;;;;;23.53;21.37;;;;;;;;;;5103016;28;20455;-81
2023/10/05 11:53:55;;;;;;;27.80;25.23;;;;;;;;;;5124213;28;20429;-81
2023/10/05 11:56:30;;;;;;;23.30;21.43;;;;;;;;;;5122721;28;20502;-79
2023/10/05 11:58:57;;;;;;;21.03;19.40;;;;;;;;;;5111049;28;20462;-78
2023/10/05 12:01:26;;;;;;;20.67;19.03;;;;;;;;;;5116658;28;20821;-80
2023/10/05 12:03:55;;;;;;;21.80;19.90;;;;;;;;;;5124355;28;20406;-79
2023/10/05 12:06:25;;;;;;;22.20;20.43;;;;;;;;;;5124202;28;20551;-80
2023/10/05 12:08:53;;;;;;;21.57;19.87;;;;;;;;;;5124673;28;20468;-80
2023/10/05 12:11:23;;;;;;;20.63;19.33;;;;;;;;;;5124073;28;21005;-80
2023/10/05 12:13:50;;;;;;;21.53;19.63;;;;;;;;;;5121452;28;20452;-80
2023/10/05 12:16:17;;;;;;;23.03;20.37;;;;;;;;;;5103956;28;20836;-81
2023/10/05 12:18:47;;;;;;;21.63;19.73;;;;;;;;;;5118422;28;20486;-80
2023/10/05 12:21:15;;;;;;;22.17;20.30;;;;;;;;;;5102433;28;20456;-81
2023/10/05 12:23:42;;;;;;;22.30;20.63;;;;;;;;;;5101873;28;20443;-81
2023/10/05 12:26:10;;;;;;;23.90;21.70;;;;;;;;;;5098855;28;20865;-80
2023/10/05 12:28:40;;;;;;;20.83;19.23;;;;;;;;;;5099573;28;20492;-80
2023/10/05 12:31:09;;;;;;;21.00;19.50;;;;;;;;;;5103193;28;20494;-80
2023/10/05 12:33:36;;;;;;;20.60;19.30;;;;;;;;;;5100052;28;20431;-79
2023/10/05 12:36:08;;;;;;;22.07;20.07;;;;;;;;;;5120915;28;20416;-79
2023/10/05 12:38:35;;;;;;;21.07;19.50;;;;;;;;;;5122018;28;20446;-80
2023/10/05 12:41:12;;;;;;;21.07;19.57;;;;;;;;;;5120113;28;20432;-80
2023/10/05 12:43:39;;;;;;;20.93;19.47;;;;;;;;;;5118538;28;20549;-78
2023/10/05 12:46:10;;;;;;;21.37;19.50;;;;;;;;;;5119411;28;20462;-80
2023/10/05 12:48:39;;;;;;;21.27;19.70;;;;;;;;;;5121564;28;20456;-79
2023/10/05 12:51:08;;;;;;;21.37;19.60;;;;;;;;;;5121386;28;20475;-80
2023/10/05 12:53:36;;;;;;;21.60;20.10;;;;;;;;;;5119087;28;20505;-79
2023/10/05 12:56:03;;;;;;;24.20;21.57;;;;;;;;;;5119946;28;20479;-79
2023/10/05 12:58:32;;;;;;;21.27;19.67;;;;;;;;;;5120917;28;20476;-80
2023/10/05 13:01:07;;;;;;;22.10;20.40;;;;;;;;;;5122442;28;20491;-80
2023/10/05 13:03:35;;;;;;;20.50;19.20;;;;;;;;;;5117779;28;20481;-79
2023/10/05 13:06:02;;;;;;;21.70;19.63;;;;;;;;;;5116665;28;20459;-80
2023/10/05 13:08:31;;;;;;;24.23;21.00;;;;;;;;;;5117263;28;20487;-80
2023/10/05 13:10:58;;;;;;;21.03;19.63;;;;;;;;;;5101497;28;20453;-80
2023/10/05 13:13:25;;;;;;;22.07;20.50;;;;;;;;;;5103923;28;20429;-81
2023/10/05 13:15:53;;;;;;;21.80;20.27;;;;;;;;;;5102487;28;20464;-81
2023/10/05 13:18:21;;;;;;;21.40;19.70;;;;;;;;;;5101076;28;20977;-80
2023/10/05 13:20:48;;;;;;;22.13;19.90;;;;;;;;;;5101312;28;20787;-82
2023/10/05 13:23:18;;;;;;;20.30;19.07;;;;;;;;;;5101527;28;20449;-82
2023/10/05 13:25:48;;;;;;;22.17;20.30;;;;;;;;;;5098239;28;20493;-81
2023/10/05 13:28:16;;;;;;;21.50;19.23;;;;;;;;;;5100756;28;20463;-81
2023/10/05 13:30:46;;;;;;;21.13;19.50;;;;;;;;;;5096836;28;20396;-84
2023/10/05 13:33:14;;;;;;;22.87;21.00;;;;;;;;;;5101403;28;20472;-84
2023/10/05 13:35:44;;;;;;;22.03;20.30;;;;;;;;;;5099302;28;20449;-85
2023/10/05 13:38:13;;;;;;;21.43;19.80;;;;;;;;;;5100978;28;20484;-84
2023/10/05 13:40:57;;;;;;;21.97;20.40;;;;;;;;;;5103678;28;20445;-79
2023/10/05 13:43:26;;;;;;;21.53;19.90;;;;;;;;;;5102696;27;20469;-79
2023/10/05 13:45:54;;;;;;;21.60;19.87;;;;;;;;;;5101512;28;20436;-79
2023/10/05 13:48:22;;;;;;;23.03;21.53;;;;;;;;;;5100435;28;20431;-79
2023/10/05 13:50:49;;;;;;;22.47;20.70;;;;;;;;;;5102672;28;20456;-79
2023/10/05 13:53:16;;;;;;;22.00;20.20;;;;;;;;;;5116204;28;20459;-78
2023/10/05 13:55:43;;;;;;;22.30;20.70;;;;;;;;;;5107218;28;20437;-80
2023/10/05 13:58:14;;;;;;;22.67;21.17;;;;;;;;;;5099198;28;20554;-79
2023/10/05 14:00:43;;;;;;;24.90;23.07;;;;;;;;;;5118905;28;20446;-79
2023/10/05 14:03:12;;;;;;;22.23;20.23;;;;;;;;;;5118243;28;20452;-79
2023/10/05 14:05:40;;;;;;;21.50;19.83;;;;;;;;;;5118771;28;20433;-79
2023/10/05 14:08:10;;;;;;;22.47;20.33;;;;;;;;;;5118902;27;20446;-80
2023/10/05 14:10:37;;;;;;;22.33;20.57;;;;;;;;;;5119007;28;20483;-78
2023/10/05 14:13:06;;;;;;;24.13;21.93;;;;;;;;;;5106178;28;20524;-78
2023/10/05 14:15:34;;;;;;;22.17;20.30;;;;;;;;;;5104140;28;20419;-79
2023/10/05 14:18:06;;;;;;;21.93;20.20;;;;;;;;;;5099902;28;20468;-79
2023/10/05 14:20:34;;;;;;;23.43;21.53;;;;;;;;;;5099351;28;20495;-78
2023/10/05 14:23:02;;;;;;;22.70;20.43;;;;;;;;;;5112319;28;20452;-79
2023/10/05 14:25:29;;;;;;;23.40;21.20;;;;;;;;;;5099652;28;20483;-86
2023/10/05 14:27:56;;;;;;;23.17;21.40;;;;;;;;;;5116143;28;20455;-78
2023/10/05 14:30:24;;;;;;;22.97;20.90;;;;;;;;;;5106567;28;20460;-84
2023/10/05 14:32:52;;;;;;;22.47;20.60;;;;;;;;;;5118250;28;20435;-82
2023/10/05 14:35:21;;;;;;;21.90;20.40;;;;;;;;;;5116769;28;20515;-82
2023/10/05 14:37:51;;;;;;;21.53;20.03;;;;;;;;;;5113732;28;21011;-83
2023/10/05 14:40:22;;;;;;;22.03;20.33;;;;;;;;;;5117562;28;20466;-82
2023/10/05 14:42:50;;;;;;;24.10;22.03;;;;;;;;;;5115393;28;20445;-82